Time;durP1;ratioP1;P1;durP2;ratioP2;P2;SDS_P1;SDS_P2;PMS_P1;PMS_P2;Temp;Humidity;BMP_temperature;BMP_pressure;BME280_temperature;BME280_humidity;BME280_pressure;Samples;Min_cycle;Max_cycle;Signal;HPM_P1;HPM_P2
2023/04/22 00:01:17;;;;;;;0.30;0.30;;;;;;;10.19;80.17;99913.91;5011536;28;20204;-76
2023/04/22 00:03:43;;;;;;;3.83;3.73;;;;;;;10.17;80.53;99913.41;5010689;28;20197;-76
2023/04/22 00:06:09;;;;;;;0.20;0.20;;;;;;;10.21;80.51;99917.13;5011370;28;20205;-76
2023/04/22 00:08:34;;;;;;;0.37;0.37;;;;;;;10.16;80.44;99906.34;5011765;28;20177;-76
2023/04/22 00:11:00;;;;;;;1.57;1.53;;;;;;;10.15;80.51;99899.28;5011534;28;20179;-76
2023/04/22 00:13:25;;;;;;;0.47;0.47;;;;;;;10.09;80.41;99895.91;5009497;28;20172;-76
2023/04/22 00:15:50;;;;;;;1.50;1.50;;;;;;;9.95;80.75;99887.06;5011489;28;20707;-76
2023/04/22 00:18:16;;;;;;;2.00;1.90;;;;;;;9.90;80.88;99887.25;5011363;28;20538;-76
2023/04/22 00:20:43;;;;;;;0.47;0.27;;;;;;;9.90;80.92;99881.00;5011016;28;20676;-76
2023/04/22 00:23:08;;;;;;;0.23;0.23;;;;;;;9.89;81.11;99888.38;5009697;28;20206;-76
2023/04/22 00:25:34;;;;;;;0.07;0.07;;;;;;;9.86;81.28;99894.47;5011353;28;20343;-76
2023/04/22 00:27:59;;;;;;;0.33;0.33;;;;;;;9.63;82.04;99882.09;5011023;28;20535;-76
2023/04/22 00:30:24;;;;;;;2.40;2.30;;;;;;;9.48;83.30;99884.13;5011208;28;20668;-76
2023/04/22 00:32:50;;;;;;;0.40;0.40;;;;;;;9.46;83.51;99877.41;5010891;28;20172;-76
2023/04/22 00:35:15;;;;;;;1.53;1.40;;;;;;;9.48;83.93;99875.97;5010890;28;20196;-76
2023/04/22 00:37:41;;;;;;;1.30;1.20;;;;;;;9.52;83.26;99876.91;5011279;28;20223;-76
2023/04/22 00:40:07;;;;;;;1.37;1.37;;;;;;;9.56;83.65;99879.03;5011110;28;20207;-76
2023/04/22 00:42:32;;;;;;;9.70;2.17;;;;;;;9.49;83.48;99869.38;5011071;28;20645;-76
2023/04/22 00:44:58;;;;;;;1.27;1.17;;;;;;;9.50;83.44;99865.53;5010643;28;20227;-76
2023/04/22 00:47:25;;;;;;;0.47;0.47;;;;;;;9.54;83.91;99868.41;5011212;28;20251;-75
2023/04/22 00:49:52;;;;;;;0.53;0.53;;;;;;;9.57;84.14;99867.81;5011021;28;20169;-76
2023/04/22 00:52:17;;;;;;;0.80;0.77;;;;;;;9.52;84.07;99873.38;5011337;28;20183;-76
2023/04/22 00:54:43;;;;;;;0.77;0.77;;;;;;;9.43;84.71;99873.38;5010501;28;20668;-76
2023/04/22 00:57:09;;;;;;;2.13;2.03;;;;;;;9.33;85.38;99875.59;5011179;28;20372;-76
2023/04/22 00:59:34;;;;;;;1.30;0.47;;;;;;;9.30;85.67;99874.31;5011361;28;20200;-78
2023/04/22 01:02:00;;;;;;;0.53;0.53;;;;;;;9.31;85.79;99867.75;5010431;28;20229;-76
2023/04/22 01:04:25;;;;;;;0.20;0.20;;;;;;;9.27;86.33;99871.44;5010661;28;20676;-76
2023/04/22 01:06:52;;;;;;;0.10;0.10;;;;;;;9.31;86.56;99883.31;5011135;28;20172;-76
2023/04/22 01:09:19;;;;;;;2.83;2.73;;;;;;;9.34;86.69;99875.28;5010989;28;20172;-76
2023/04/22 01:11:45;;;;;;;0.00;0.00;;;;;;;9.22;86.66;99866.91;5010801;28;20176;-76
2023/04/22 01:14:11;;;;;;;1.33;1.23;;;;;;;9.26;86.69;99873.34;5010316;28;20187;-76
2023/04/22 01:16:37;;;;;;;0.10;0.10;;;;;;;9.24;86.39;99872.84;5010907;28;20169;-76
2023/04/22 01:19:03;;;;;;;0.47;0.47;;;;;;;9.20;86.24;99869.16;5009977;28;20660;-76
2023/04/22 01:21:32;;;;;;;0.03;0.03;;;;;;;9.17;86.87;99867.06;5010800;28;20196;-76
2023/04/22 01:23:58;;;;;;;0.00;0.00;;;;;;;9.19;87.31;99873.81;5010354;28;20168;-76
2023/04/22 01:26:23;;;;;;;22.97;22.00;;;;;;;9.27;86.87;99874.16;5010925;28;20227;-76
2023/04/22 01:28:49;;;;;;;0.00;0.00;;;;;;;9.35;86.93;99876.88;5009425;28;20180;-76
2023/04/22 01:31:15;;;;;;;0.00;0.00;;;;;;;9.19;87.19;99867.53;5010760;28;20183;-76
2023/04/22 01:33:40;;;;;;;0.00;0.00;;;;;;;8.88;87.72;99867.59;5008946;28;20271;-76
2023/04/22 01:36:06;;;;;;;0.37;0.37;;;;;;;8.77;88.88;99868.97;5009384;28;20215;-76
2023/04/22 01:38:32;;;;;;;0.00;0.00;;;;;;;8.88;88.96;99876.56;5010709;28;20173;-76
2023/04/22 01:41:00;;;;;;;0.40;0.40;;;;;;;9.08;88.84;99869.75;5010475;28;20188;-76
2023/04/22 01:43:25;;;;;;;0.00;0.00;;;;;;;9.17;88.15;99864.34;5009994;28;20173;-76
2023/04/22 01:45:51;;;;;;;0.00;0.00;;;;;;;9.29;88.02;99869.19;5010598;28;20218;-76
2023/04/22 01:48:16;;;;;;;0.00;0.00;;;;;;;9.32;87.83;99865.81;5010879;28;20538;-76
2023/04/22 01:50:41;;;;;;;0.00;0.00;;;;;;;9.31;87.58;99865.03;5010601;28;20640;-76
2023/04/22 01:53:07;;;;;;;0.00;0.00;;;;;;;9.37;87.61;99863.75;5008844;28;20176;-76
2023/04/22 01:55:34;;;;;;;0.00;0.00;;;;;;;9.36;86.82;99858.59;5009153;28;20218;-76
2023/04/22 01:58:00;;;;;;;0.00;0.00;;;;;;;9.40;86.81;99862.28;5011635;28;20541;-76
2023/04/22 02:00:25;;;;;;;0.00;0.00;;;;;;;9.05;87.57;99864.94;5013818;28;20200;-76
2023/04/22 02:02:50;;;;;;;0.00;0.00;;;;;;;9.15;88.08;99866.59;5012918;28;20538;-76
2023/04/22 02:05:17;;;;;;;0.00;0.00;;;;;;;9.23;87.42;99865.78;5013808;28;20185;-76
2023/04/22 02:07:42;;;;;;;0.00;0.00;;;;;;;9.29;87.14;99867.25;5013915;28;20172;-76
2023/04/22 02:10:08;;;;;;;0.00;0.00;;;;;;;9.06;87.28;99857.56;5013572;28;20578;-76
2023/04/22 02:12:34;;;;;;;0.00;0.00;;;;;;;9.20;87.70;99864.50;5012441;28;20259;-76
2023/04/22 02:14:59;;;;;;;0.00;0.00;;;;;;;9.28;87.37;99862.94;5013400;28;20722;-76
2023/04/22 02:17:25;;;;;;;0.00;0.00;;;;;;;9.15;87.48;99861.13;5013878;28;20675;-76
2023/04/22 02:19:50;;;;;;;0.00;0.00;;;;;;;9.14;87.60;99860.34;5013783;28;20192;-76
2023/04/22 02:22:16;;;;;;;0.00;0.00;;;;;;;9.03;87.67;99859.00;5013647;28;20168;-76
2023/04/22 02:24:41;;;;;;;0.00;0.00;;;;;;;9.09;87.96;99851.47;5013164;28;20702;-76
2023/04/22 02:27:07;;;;;;;2.20;2.00;;;;;;;9.15;87.22;99848.31;5013688;28;20659;-76
2023/04/22 02:29:33;;;;;;;0.00;0.00;;;;;;;9.09;87.83;99837.84;5012147;28;20176;-76
2023/04/22 02:31:59;;;;;;;0.00;0.00;;;;;;;9.20;87.20;99847.34;5012105;28;20173;-76
2023/04/22 02:34:24;;;;;;;0.00;0.00;;;;;;;9.20;87.17;99847.34;5011691;28;20200;-76
2023/04/22 02:36:50;;;;;;;0.00;0.00;;;;;;;9.18;87.28;99853.13;5013526;28;20543;-76
2023/04/22 02:39:15;;;;;;;0.10;0.10;;;;;;;9.18;87.50;99847.66;5013110;28;20637;-76
2023/04/22 02:41:40;;;;;;;0.00;0.00;;;;;;;9.24;86.93;99851.84;5013604;28;20238;-76
2023/04/22 02:44:06;;;;;;;0.00;0.00;;;;;;;9.30;86.83;99852.50;5012784;28;20259;-76
2023/04/22 02:46:31;;;;;;;0.00;0.00;;;;;;;9.43;86.39;99845.31;5013318;28;20177;-76
2023/04/22 02:48:56;;;;;;;2.23;0.93;;;;;;;9.45;85.85;99846.59;5012985;28;20183;-76
2023/04/22 02:51:22;;;;;;;0.10;0.10;;;;;;;9.44;85.60;99852.38;5013096;28;20231;-76
2023/04/22 02:53:47;;;;;;;0.93;0.93;;;;;;;9.43;85.73;99837.16;5012419;28;20358;-76
2023/04/22 02:56:12;;;;;;;0.00;0.00;;;;;;;9.25;85.43;99839.81;5012762;28;20192;-76
2023/04/22 02:58:38;;;;;;;0.00;0.00;;;;;;;9.22;85.95;99845.91;5012906;28;20180;-76
2023/04/22 03:01:03;;;;;;;0.00;0.00;;;;;;;9.11;86.70;99847.34;5020700;23;20288;-86
2023/04/22 03:03:28;;;;;;;0.00;0.00;;;;;;;9.05;87.00;99845.88;4991760;28;20268;-85
2023/04/22 03:05:53;;;;;;;0.00;0.00;;;;;;;9.11;86.80;99844.63;4995771;28;20640;-86
2023/04/22 03:08:19;;;;;;;1.03;1.03;;;;;;;9.05;87.31;99845.06;4978428;28;20181;-85
2023/04/22 03:10:44;;;;;;;0.00;0.00;;;;;;;9.07;87.32;99845.53;4985587;28;20251;-85
2023/04/22 03:13:11;;;;;;;0.00;0.00;;;;;;;9.12;87.30;99845.41;4993760;28;20177;-85
2023/04/22 03:15:39;;;;;;;0.00;0.00;;;;;;;9.14;86.94;99837.72;4994336;28;20675;-85
2023/04/22 03:18:04;;;;;;;2.33;0.50;;;;;;;9.09;86.59;99846.81;4994051;28;20180;-85
2023/04/22 03:20:29;;;;;;;0.63;0.63;;;;;;;9.01;86.84;99844.09;4994771;28;20201;-85
2023/04/22 03:22:55;;;;;;;1.20;1.07;;;;;;;8.65;87.39;99847.78;4994596;28;20177;-84
2023/04/22 03:25:20;;;;;;;0.00;0.00;;;;;;;8.44;88.76;99844.00;4994445;28;20176;-85
2023/04/22 03:27:45;;;;;;;0.00;0.00;;;;;;;8.38;90.28;99845.22;4994465;28;20189;-85
2023/04/22 03:30:11;;;;;;;0.43;0.43;;;;;;;8.29;91.20;99845.97;4994771;28;20197;-83
2023/04/22 03:32:36;;;;;;;0.43;0.43;;;;;;;8.32;91.84;99848.06;4993554;28;20227;-85
2023/04/22 03:35:02;;;;;;;2.33;2.33;;;;;;;8.25;92.43;99844.19;4994120;28;20551;-85
2023/04/22 03:37:27;;;;;;;0.00;0.00;;;;;;;8.26;93.06;99843.88;4994497;28;20185;-84
2023/04/22 03:39:52;;;;;;;0.00;0.00;;;;;;;8.35;93.70;99836.56;4994338;28;20235;-84
2023/04/22 03:42:18;;;;;;;1.20;1.10;;;;;;;8.41;92.83;99841.91;4994647;28;20192;-85
2023/04/22 03:44:43;;;;;;;0.03;0.03;;;;;;;8.39;93.03;99844.94;4995502;28;20184;-84
2023/04/22 03:47:08;;;;;;;0.00;0.00;;;;;;;8.42;92.95;99825.25;4998809;28;20185;-84
2023/04/22 03:49:34;;;;;;;0.00;0.00;;;;;;;8.49;92.73;99836.50;4997178;28;20177;-84
2023/04/22 03:52:00;;;;;;;0.00;0.00;;;;;;;8.56;92.67;99838.78;4996527;28;20173;-84
2023/04/22 03:54:25;;;;;;;1.40;1.40;;;;;;;8.71;91.78;99846.53;4995327;28;20173;-85
2023/04/22 03:56:51;;;;;;;0.00;0.00;;;;;;;8.77;91.12;99842.56;4994544;28;20181;-84
2023/04/22 03:59:16;;;;;;;0.10;0.10;;;;;;;8.80;90.55;99832.94;4995793;28;20536;-84
2023/04/22 04:01:42;;;;;;;0.00;0.00;;;;;;;8.94;89.88;99834.44;4997420;28;20240;-84
2023/04/22 04:04:07;;;;;;;0.07;0.07;;;;;;;8.95;89.28;99825.16;4995456;28;20180;-84
2023/04/22 04:06:33;;;;;;;0.47;0.37;;;;;;;8.97;89.08;99826.75;4998594;28;20216;-85
2023/04/22 04:08:58;;;;;;;0.13;0.13;;;;;;;8.97;88.78;99822.13;4997377;28;20253;-85
2023/04/22 04:11:23;;;;;;;0.00;0.00;;;;;;;8.92;89.35;99817.63;4995739;28;20200;-84
2023/04/22 04:13:49;;;;;;;0.10;0.10;;;;;;;8.95;88.79;99830.59;5002260;28;20169;-85
2023/04/22 04:16:15;;;;;;;0.40;0.40;;;;;;;8.93;88.91;99829.31;5009858;28;20288;-85
2023/04/22 04:18:40;;;;;;;0.00;0.00;;;;;;;8.97;88.51;99829.47;4994220;28;20188;-85
2023/04/22 04:21:06;;;;;;;0.00;0.00;;;;;;;8.96;88.82;99839.56;4996252;28;20292;-85
2023/04/22 04:23:31;;;;;;;0.30;0.30;;;;;;;8.97;88.96;99835.75;4992503;28;20267;-85
2023/04/22 04:25:57;;;;;;;0.10;0.10;;;;;;;9.00;89.44;99831.59;4993667;28;20172;-85
2023/04/22 04:28:22;;;;;;;0.00;0.00;;;;;;;9.01;88.77;99825.81;4993802;28;20180;-85
2023/04/22 04:30:47;;;;;;;0.30;0.30;;;;;;;8.89;89.14;99831.88;4992581;28;20185;-84
2023/04/22 04:33:15;;;;;;;0.00;0.00;;;;;;;8.89;89.22;99833.78;4993500;28;20184;-85
2023/04/22 04:35:42;;;;;;;0.57;0.57;;;;;;;8.88;89.64;99834.91;4993729;28;20176;-85
2023/04/22 04:38:07;;;;;;;0.07;0.07;;;;;;;8.87;90.00;99836.03;4992382;28;20177;-85
2023/04/22 04:40:34;;;;;;;0.20;0.20;;;;;;;8.91;89.48;99826.91;4993341;28;20725;-85
2023/04/22 04:43:03;;;;;;;1.20;1.20;;;;;;;8.94;89.90;99825.47;4992346;28;20184;-85
2023/04/22 04:45:28;;;;;;;1.77;1.70;;;;;;;8.88;89.68;99824.81;4993428;28;20169;-85
2023/04/22 04:47:54;;;;;;;0.70;0.70;;;;;;;8.97;89.88;99821.31;4993147;28;20787;-85
2023/04/22 04:50:20;;;;;;;0.20;0.20;;;;;;;8.97;90.00;99822.13;4991882;28;20691;-85
2023/04/22 04:52:47;;;;;;;0.77;0.77;;;;;;;8.97;90.06;99824.84;4993018;28;20248;-86
2023/04/22 04:55:13;;;;;;;0.00;0.00;;;;;;;9.05;90.70;99823.25;4992050;28;20181;-86
2023/04/22 04:57:39;;;;;;;0.50;0.50;;;;;;;9.18;90.37;99814.97;4992336;28;20184;-86
2023/04/22 05:00:05;;;;;;;0.00;0.00;;;;;;;9.30;89.62;99816.28;4991727;28;20742;-85
2023/04/22 05:02:30;;;;;;;5.13;4.83;;;;;;;9.40;89.86;99819.50;4993550;28;20181;-85
2023/04/22 05:04:55;;;;;;;0.00;0.00;;;;;;;9.55;89.28;99823.69;4992309;28;20671;-85
2023/04/22 05:07:20;;;;;;;0.00;0.00;;;;;;;9.65;88.71;99815.19;4992085;28;20232;-85
2023/04/22 05:09:46;;;;;;;0.03;0.03;;;;;;;9.78;87.92;99816.16;4993391;28;20244;-85
2023/04/22 05:12:11;;;;;;;0.30;0.30;;;;;;;9.92;87.38;99824.97;4991642;28;20260;-85
2023/04/22 05:14:36;;;;;;;0.00;0.00;;;;;;;10.05;87.10;99824.00;4991492;28;20234;-85
2023/04/22 05:17:02;;;;;;;0.40;0.40;;;;;;;10.19;86.96;99818.34;4992188;28;20556;-85
2023/04/22 05:19:27;;;;;;;0.00;0.00;;;;;;;10.35;86.38;99815.94;4992478;28;20224;-86
2023/04/22 05:21:52;;;;;;;2.37;2.27;;;;;;;10.49;86.06;99811.09;4995136;28;20235;-85
2023/04/22 05:24:18;;;;;;;0.20;0.20;;;;;;;10.64;85.27;99813.28;4995270;28;20204;-85
2023/04/22 05:26:43;;;;;;;0.33;0.33;;;;;;;10.79;84.74;99809.19;4995332;28;20182;-85
2023/04/22 05:29:08;;;;;;;0.60;0.60;;;;;;;10.94;84.08;99811.38;4995015;28;20188;-86
2023/04/22 05:31:34;;;;;;;0.00;0.00;;;;;;;11.10;83.62;99810.81;4997405;28;20263;-86
2023/04/22 05:33:59;;;;;;;2.37;1.70;;;;;;;11.27;83.26;99813.44;4998292;28;20169;-86
2023/04/22 05:36:26;;;;;;;0.07;0.07;;;;;;;11.38;82.48;99816.59;4997152;28;20242;-85
2023/04/22 05:38:51;;;;;;;0.00;0.00;;;;;;;11.54;81.90;99828.56;4997744;28;20626;-86
2023/04/22 05:41:16;;;;;;;0.00;0.00;;;;;;;11.76;80.04;99811.00;4998173;28;20726;-85
2023/04/22 05:43:42;;;;;;;0.10;0.10;;;;;;;11.95;78.57;99811.34;5007882;28;20195;-84
2023/04/22 05:46:07;;;;;;;0.00;0.00;;;;;;;12.08;77.29;99810.25;5016940;28;20275;-84
2023/04/22 05:48:32;;;;;;;0.30;0.30;;;;;;;12.16;76.15;99814.88;5018608;28;20180;-84
2023/04/22 05:50:58;;;;;;;2.73;0.83;;;;;;;12.25;75.71;99805.75;5017948;28;20196;-85
2023/04/22 05:53:23;;;;;;;0.17;0.17;;;;;;;12.32;75.78;99811.50;5017243;28;20311;-85
2023/04/22 05:55:49;;;;;;;0.00;0.00;;;;;;;12.41;75.64;99810.25;5017929;28;20570;-86
2023/04/22 05:58:14;;;;;;;1.47;1.37;;;;;;;12.49;75.52;99819.53;5018027;28;20180;-85
2023/04/22 06:00:39;;;;;;;0.00;0.00;;;;;;;12.57;74.49;99815.06;5018347;28;20254;-86
2023/04/22 06:03:05;;;;;;;0.00;0.00;;;;;;;12.67;74.13;99809.94;5017624;28;20655;-86
2023/04/22 06:05:30;;;;;;;0.00;0.00;;;;;;;12.85;74.22;99812.47;5017534;28;20166;-86
2023/04/22 06:07:56;;;;;;;1.80;1.70;;;;;;;12.94;73.44;99805.75;5016348;28;20187;-86
2023/04/22 06:10:21;;;;;;;0.33;0.33;;;;;;;13.06;73.29;99811.22;5016293;28;20215;-86
2023/04/22 06:12:46;;;;;;;0.17;0.17;;;;;;;13.23;72.51;99798.44;5015775;28;20176;-86
2023/04/22 06:15:12;;;;;;;0.00;0.00;;;;;;;13.34;71.46;99799.59;5016576;28;20263;-86
2023/04/22 06:17:38;;;;;;;0.10;0.10;;;;;;;13.40;71.08;99800.94;5016719;28;20179;-86
2023/04/22 06:20:03;;;;;;;0.00;0.00;;;;;;;13.52;70.61;99797.38;5017136;28;20200;-85
2023/04/22 06:22:28;;;;;;;2.37;2.27;;;;;;;13.60;69.48;99807.44;5017679;28;20183;-85
2023/04/22 06:24:54;;;;;;;0.40;0.40;;;;;;;13.70;69.02;99796.72;5018007;28;20725;-85
2023/04/22 06:27:19;;;;;;;0.20;0.20;;;;;;;13.84;69.43;99793.59;5020264;28;20172;-86
2023/04/22 06:29:45;;;;;;;1.23;1.07;;;;;;;13.94;68.77;99790.38;5017990;28;20193;-85
2023/04/22 06:32:10;;;;;;;0.17;0.17;;;;;;;14.09;68.02;99794.31;5018664;28;20331;-86
2023/04/22 06:34:37;;;;;;;4.47;1.83;;;;;;;14.17;67.71;99798.81;5018768;28;20200;-85
2023/04/22 06:37:03;;;;;;;0.00;0.00;;;;;;;14.27;66.56;99781.84;5016770;28;20173;-86
2023/04/22 06:39:28;;;;;;;0.00;0.00;;;;;;;14.39;67.02;99791.97;5015000;28;20659;-85
2023/04/22 06:41:53;;;;;;;0.00;0.00;;;;;;;14.52;66.28;99782.53;5015591;28;20220;-85
2023/04/22 06:44:18;;;;;;;0.30;0.30;;;;;;;14.79;65.63;99785.53;5016531;28;20177;-85
2023/04/22 06:46:45;;;;;;;0.73;0.73;;;;;;;14.75;65.19;99779.94;5017765;28;20169;-85
2023/04/22 06:49:10;;;;;;;0.00;0.00;;;;;;;14.82;65.53;99771.88;5016703;28;20551;-86
2023/04/22 06:51:35;;;;;;;0.63;0.63;;;;;;;14.84;65.06;99766.81;5019200;28;20189;-85
2023/04/22 06:54:01;;;;;;;0.00;0.00;;;;;;;14.95;65.33;99763.53;5018165;28;20234;-85
2023/04/22 06:56:26;;;;;;;0.10;0.10;;;;;;;15.08;64.96;99762.25;5018657;28;20661;-85
2023/04/22 06:58:51;;;;;;;0.70;0.70;;;;;;;15.15;64.59;99760.44;5018314;28;20176;-85
2023/04/22 07:01:17;;;;;;;2.23;0.33;;;;;;;15.31;65.51;99773.38;5018288;28;20760;-85
2023/04/22 07:03:43;;;;;;;0.10;0.00;;;;;;;15.42;65.17;99775.22;5017724;28;20176;-85
2023/04/22 07:06:08;;;;;;;0.00;0.00;;;;;;;15.39;63.19;99761.38;5018406;28;20643;-86
2023/04/22 07:08:34;;;;;;;0.40;0.23;;;;;;;15.48;63.26;99762.78;5019084;28;20177;-85
2023/04/22 07:10:59;;;;;;;0.90;0.90;;;;;;;15.54;63.14;99767.97;5020743;28;20191;-85
2023/04/22 07:13:26;;;;;;;0.00;0.00;;;;;;;15.53;62.66;99775.44;5018759;28;20267;-85
2023/04/22 07:15:51;;;;;;;0.00;0.00;;;;;;;15.62;63.60;99776.06;5018427;28;20259;-86
2023/04/22 07:18:16;;;;;;;0.10;0.10;;;;;;;15.69;63.42;99767.94;5020867;28;20330;-84
2023/04/22 07:20:44;;;;;;;0.00;0.00;;;;;;;15.73;63.02;99760.53;5019797;28;20196;-86
2023/04/22 07:23:10;;;;;;;0.00;0.00;;;;;;;15.83;63.04;99761.94;5019661;28;20180;-86
2023/04/22 07:25:35;;;;;;;2.60;1.27;;;;;;;15.80;61.80;99748.88;5008283;28;20320;-85
2023/04/22 07:28:00;;;;;;;0.20;0.20;;;;;;;15.87;62.04;99745.47;5000992;28;20173;-85
2023/04/22 07:30:29;;;;;;;0.00;0.00;;;;;;;15.91;62.76;99755.41;5000926;28;20193;-86
2023/04/22 07:32:54;;;;;;;0.00;0.00;;;;;;;16.09;64.04;99771.50;4998988;28;20240;-86
2023/04/22 07:35:19;;;;;;;0.30;0.30;;;;;;;16.14;64.29;99771.19;4999568;28;20220;-86
2023/04/22 07:37:45;;;;;;;0.40;0.30;;;;;;;16.25;62.46;99756.44;5000682;28;20204;-86
2023/04/22 07:40:12;;;;;;;0.00;0.00;;;;;;;16.30;62.05;99758.09;5000130;28;20193;-86
2023/04/22 07:42:39;;;;;;;0.00;0.00;;;;;;;16.39;61.58;99750.38;5003931;28;20185;-86
2023/04/22 07:45:05;;;;;;;0.37;0.37;;;;;;;16.47;62.19;99752.06;5003991;28;20185;-87
2023/04/22 07:47:30;;;;;;;0.13;0.10;;;;;;;16.50;60.93;99739.53;5004760;28;20188;-86
2023/04/22 07:49:56;;;;;;;0.53;0.53;;;;;;;16.45;60.65;99737.88;5004836;28;20201;-86
2023/04/22 07:52:21;;;;;;;0.63;0.63;;;;;;;16.43;61.30;99754.00;5002932;28;20213;-86
2023/04/22 07:54:46;;;;;;;0.00;0.00;;;;;;;16.47;61.39;99759.56;5002100;28;20644;-86
2023/04/22 07:57:12;;;;;;;0.17;0.17;;;;;;;16.53;61.21;99755.34;4998806;28;20177;-86
2023/04/22 07:59:37;;;;;;;0.10;0.10;;;;;;;16.68;61.28;99759.16;4999220;28;20180;-86
2023/04/22 08:02:02;;;;;;;0.17;0.17;;;;;;;16.73;61.17;99754.13;4997729;28;20282;-86
2023/04/22 08:04:28;;;;;;;0.00;0.00;;;;;;;16.92;61.56;99744.94;4998491;28;20196;-86
2023/04/22 08:06:54;;;;;;;0.00;0.00;;;;;;;16.88;59.91;99733.06;4997837;28;20228;-85
2023/04/22 08:09:20;;;;;;;0.83;0.83;;;;;;;17.06;60.77;99750.69;4994875;28;20227;-86
2023/04/22 08:11:45;;;;;;;0.53;0.53;;;;;;;17.25;61.52;99758.06;4994410;28;20193;-85
2023/04/22 08:14:10;;;;;;;0.50;0.50;;;;;;;17.38;59.54;99737.34;4994303;28;20180;-86
2023/04/22 08:16:37;;;;;;;2.33;1.70;;;;;;;17.38;58.58;99729.06;4994043;28;20185;-85
2023/04/22 08:19:02;;;;;;;0.10;0.10;;;;;;;17.49;58.84;99731.94;4995892;28;20173;-86
2023/04/22 08:21:27;;;;;;;0.20;0.20;;;;;;;17.62;58.75;99736.06;5001204;28;20235;-85
2023/04/22 08:23:53;;;;;;;0.73;0.73;;;;;;;17.69;58.60;99729.88;5010506;28;20192;-85
2023/04/22 08:26:19;;;;;;;0.00;0.00;;;;;;;17.91;59.03;99737.22;4997939;28;20181;-86
2023/04/22 08:28:44;;;;;;;0.30;0.30;;;;;;;17.95;57.69;99723.47;4994910;28;20689;-85
2023/04/22 08:31:11;;;;;;;0.57;0.33;;;;;;;18.08;58.67;99730.28;4996564;28;20362;-86
2023/04/22 08:33:39;;;;;;;0.20;0.20;;;;;;;18.14;57.96;99726.03;4996708;28;20181;-86
2023/04/22 08:36:05;;;;;;;0.10;0.10;;;;;;;18.28;57.29;99717.06;4995342;28;20177;-86
2023/04/22 08:38:30;;;;;;;0.10;0.10;;;;;;;18.35;56.69;99719.88;4997218;28;20251;-86
2023/04/22 08:40:56;;;;;;;0.40;0.40;;;;;;;18.39;57.01;99721.53;4996011;28;20687;-86
2023/04/22 08:43:21;;;;;;;0.10;0.10;;;;;;;18.47;56.54;99718.81;4994996;28;20271;-85
2023/04/22 08:45:48;;;;;;;0.33;0.33;;;;;;;18.42;56.90;99712.47;4997136;28;20219;-86
2023/04/22 08:48:14;;;;;;;0.70;0.70;;;;;;;18.47;57.28;99729.88;4995717;28;20588;-86
2023/04/22 08:50:40;;;;;;;0.00;0.00;;;;;;;18.52;56.64;99713.72;4996442;28;20193;-86
2023/04/22 08:53:05;;;;;;;0.67;0.63;;;;;;;18.60;55.87;99722.88;4994920;28;20532;-85
2023/04/22 08:55:31;;;;;;;0.00;0.00;;;;;;;18.63;55.55;99719.34;4993492;28;20177;-86
2023/04/22 08:57:59;;;;;;;0.00;0.00;;;;;;;18.69;56.74;99732.47;4995454;28;20235;-85
2023/04/22 09:00:25;;;;;;;0.00;0.00;;;;;;;18.72;56.95;99722.59;5017711;23;20212;-88
2023/04/22 09:02:58;;;;;;;0.00;0.00;;;;;;;18.88;56.86;99720.34;4990759;28;20201;-88
2023/04/22 09:05:28;;;;;;;0.30;0.30;;;;;;;18.83;55.76;99704.13;4991667;28;20243;-87
2023/04/22 09:07:54;;;;;;;0.60;0.57;;;;;;;19.00;56.42;99722.81;4994310;28;20220;-87
2023/04/22 09:10:20;;;;;;;0.00;0.00;;;;;;;19.10;56.11;99709.44;4995611;28;20657;-86
2023/04/22 09:13:05;;;;;;;0.13;0.13;;;;;;;19.15;55.76;99701.53;4996818;28;20303;-87
2023/04/22 09:15:33;;;;;;;0.20;0.20;;;;;;;19.20;54.11;99697.59;4995763;28;20181;-88
2023/04/22 09:18:00;;;;;;;0.30;0.30;;;;;;;19.29;54.97;99700.81;4996191;28;20169;-87
2023/04/22 09:20:39;;;;;;;0.00;0.00;;;;;;;19.36;55.32;99697.28;4996685;28;20203;-86
2023/04/22 09:23:07;;;;;;;0.00;0.00;;;;;;;19.42;53.72;99695.72;4995407;28;20239;-87
2023/04/22 09:25:37;;;;;;;0.43;0.40;;;;;;;19.53;53.48;99696.59;4995634;28;20178;-87
2023/04/22 09:28:05;;;;;;;0.10;0.10;;;;;;;19.53;53.95;99699.34;4997892;28;20181;-87
2023/04/22 09:30:39;;;;;;;0.00;0.00;;;;;;;19.53;53.32;99691.03;5003743;28;20175;-87
2023/04/22 09:33:09;;;;;;;0.00;0.00;;;;;;;19.58;53.05;99677.63;4998141;28;20183;-87
2023/04/22 09:35:42;;;;;;;1.33;1.33;;;;;;;19.72;53.69;99690.72;4995837;28;20207;-87
2023/04/22 09:38:13;;;;;;;0.67;0.43;;;;;;;19.75;53.74;99678.06;4995097;28;20182;-86
2023/04/22 09:40:45;;;;;;;0.10;0.10;;;;;;;19.80;53.41;99674.88;4994651;28;20237;-86
2023/04/22 09:43:11;;;;;;;0.10;0.10;;;;;;;19.93;54.11;99684.44;4994531;28;20220;-87
2023/04/22 09:45:49;;;;;;;0.27;0.27;;;;;;;20.07;54.42;99695.53;4996133;28;20205;-87
2023/04/22 09:48:20;;;;;;;0.00;0.00;;;;;;;20.15;52.83;99685.28;4995129;28;20199;-87
2023/04/22 09:50:50;;;;;;;1.10;1.00;;;;;;;20.30;51.99;99672.22;4995572;28;20282;-88
2023/04/22 09:53:23;;;;;;;0.17;0.17;;;;;;;20.30;52.01;99663.88;4995950;28;20659;-87
2023/04/22 09:56:03;;;;;;;0.10;0.10;;;;;;;20.23;52.63;99674.97;4995073;28;20636;-87
2023/04/22 09:58:34;;;;;;;1.20;1.10;;;;;;;20.40;51.16;99658.34;4995865;28;20550;-86
2023/04/22 10:01:15;;;;;;;0.60;0.60;;;;;;;20.43;51.02;99657.56;4994220;28;20299;-87
2023/04/22 10:03:41;;;;;;;0.10;0.10;;;;;;;20.34;50.58;99651.59;4994421;28;20185;-86
2023/04/22 10:06:06;;;;;;;0.23;0.23;;;;;;;20.49;51.00;99655.97;4995086;28;20182;-87
2023/04/22 10:08:35;;;;;;;0.00;0.00;;;;;;;20.56;49.59;99644.09;4995909;28;20674;-87
2023/04/22 10:11:03;;;;;;;0.00;0.00;;;;;;;20.70;50.24;99646.03;4995921;28;20189;-87
2023/04/22 10:16:15;;;;;;;0.03;0.03;;;;;;;20.84;47.91;99626.59;4995523;28;20175;-87
2023/04/22 10:19:04;;;;;;;0.10;0.10;;;;;;;20.76;48.26;99625.78;4995458;28;20179;-86
2023/04/22 10:21:36;;;;;;;0.63;0.63;;;;;;;20.98;48.25;99623.75;4994330;28;20727;-88
2023/04/22 10:24:02;;;;;;;0.30;0.30;;;;;;;21.21;48.78;99639.16;4994006;28;20780;-87
2023/04/22 10:27:04;;;;;;;1.47;0.47;;;;;;;21.39;47.41;99623.22;4994390;28;20222;-88
2023/04/22 10:29:37;;;;;;;0.00;0.00;;;;;;;21.41;46.61;99617.25;4976918;28;20585;-86
2023/04/22 10:32:25;;;;;;;0.60;0.60;;;;;;;21.37;46.71;99614.50;4993640;28;20227;-86
2023/04/22 10:35:25;;;;;;;0.00;0.00;;;;;;;21.44;47.42;99628.38;4994117;28;20191;-86
2023/04/22 10:38:25;;;;;;;0.37;0.30;;;;;;;21.71;47.77;99628.63;4994229;28;20184;-87
2023/04/22 10:41:24;;;;;;;1.20;1.13;;;;;;;21.71;46.03;99625.03;4993813;28;20221;-88
2023/04/22 10:43:57;;;;;;;0.40;0.40;;;;;;;21.78;46.68;99617.44;4994887;28;20215;-88
2023/04/22 10:46:44;;;;;;;0.03;0.03;;;;;;;21.72;45.86;99613.50;4994083;28;20208;-88
2023/04/22 10:49:20;;;;;;;0.00;0.00;;;;;;;21.76;46.84;99613.47;4994131;28;20227;-89
2023/04/22 10:51:50;;;;;;;34.20;1.70;;;;;;;21.80;48.26;99628.16;4993246;28;20614;-88
2023/04/22 10:54:27;;;;;;;0.37;0.33;;;;;;;21.98;48.98;99637.16;4994666;28;20655;-85
2023/04/22 10:57:21;;;;;;;1.07;0.97;;;;;;;21.81;46.92;99638.84;4994650;28;20176;-85
2023/04/22 10:59:53;;;;;;;1.00;1.00;;;;;;;21.41;46.88;99620.84;4986631;28;20183;-85
2023/04/22 11:02:20;;;;;;;0.40;0.40;;;;;;;21.18;46.34;99601.06;4993382;28;20246;-87
2023/04/22 11:04:48;;;;;;;0.00;0.00;;;;;;;21.32;47.60;99612.94;4993287;28;20206;-88
2023/04/22 11:07:19;;;;;;;0.40;0.40;;;;;;;21.21;46.87;99601.03;4993578;28;20179;-88
2023/04/22 11:09:46;;;;;;;0.67;0.50;;;;;;;21.19;47.03;99605.41;4994884;28;20210;-87
2023/04/22 11:12:41;;;;;;;0.00;0.00;;;;;;;21.35;46.99;99601.00;4994734;28;20186;-87
2023/04/22 11:15:09;;;;;;;0.60;0.57;;;;;;;21.52;47.70;99609.66;4994684;28;20166;-87
2023/04/22 11:17:40;;;;;;;0.33;0.33;;;;;;;21.69;47.44;99605.97;4994571;28;20610;-88
2023/04/22 11:20:18;;;;;;;0.00;0.00;;;;;;;21.79;47.25;99596.75;4994657;28;20544;-88
2023/04/22 11:22:50;;;;;;;1.03;0.87;;;;;;;21.80;47.10;99589.22;4994709;28;20256;-87
2023/04/22 11:25:22;;;;;;;0.37;0.30;;;;;;;21.98;47.66;99592.66;4993266;28;20551;-88
2023/04/22 11:27:52;;;;;;;5.53;0.57;;;;;;;21.89;47.61;99589.56;4993948;28;20176;-87
2023/04/22 11:30:20;;;;;;;0.30;0.30;;;;;;;22.06;47.35;99588.66;4993213;28;20180;-87
2023/04/22 11:32:59;;;;;;;0.10;0.10;;;;;;;22.23;47.84;99598.03;4993189;28;20179;-87
2023/04/22 11:35:34;;;;;;;0.73;0.73;;;;;;;22.34;46.60;99586.81;4996251;28;20177;-87
2023/04/22 11:38:04;;;;;;;0.23;0.23;;;;;;;22.52;46.59;99579.06;4997080;28;20201;-88
2023/04/22 11:40:40;;;;;;;0.00;0.00;;;;;;;22.53;46.45;99580.66;4997624;28;20205;-88